createdAt,value
2023-03-10T00:00:49.004Z,7.50
2023-03-10T00:05:52.202Z,8.38
2023-03-10T00:10:56.845Z,8.07
2023-03-10T00:16:00.110Z,8.05
2023-03-10T00:21:03.387Z,7.82
2023-03-10T00:26:08.314Z,8.07
2023-03-10T00:36:17.890Z,8.60
2023-03-10T00:41:24.327Z,8.00
2023-03-10T00:46:28.244Z,7.18
2023-03-10T00:51:31.489Z,7.50
2023-03-10T00:56:36.064Z,7.65
2023-03-10T01:01:41.473Z,7.78
2023-03-10T01:06:47.635Z,8.80
2023-03-10T01:11:52.244Z,7.65
2023-03-10T01:16:55.405Z,8.65
2023-03-10T01:21:58.592Z,8.80
2023-03-10T01:27:03.177Z,7.70
2023-03-10T01:32:07.078Z,7.45
2023-03-10T01:37:10.250Z,7.38
2023-03-10T01:42:14.816Z,8.90
2023-03-10T01:47:17.967Z,7.97
2023-03-10T01:52:24.591Z,6.82
2023-03-10T01:57:33.672Z,8.05
2023-03-10T02:02:38.901Z,7.90
2023-03-10T02:07:44.453Z,7.93
2023-03-10T02:12:49.005Z,7.28
2023-03-10T02:17:54.623Z,7.30
2023-03-10T02:22:57.786Z,8.10
2023-03-10T02:28:02.491Z,8.35
2023-03-10T02:33:09.104Z,8.80
2023-03-10T02:38:12.295Z,7.32
2023-03-10T02:43:20.213Z,7.00
2023-03-10T02:48:28.344Z,8.63
2023-03-10T02:53:31.848Z,7.97
2023-03-10T02:58:37.739Z,7.60
2023-03-10T03:03:41.245Z,8.55
2023-03-10T03:08:44.461Z,7.05
2023-03-10T03:13:49.063Z,7.65
2023-03-10T03:18:52.212Z,8.52
2023-03-10T03:23:55.464Z,7.57
2023-03-10T03:29:00.450Z,8.00
2023-03-10T03:34:04.579Z,6.82
2023-03-10T03:39:07.767Z,7.50
2023-03-10T03:44:12.311Z,6.97
2023-03-10T03:49:15.452Z,7.57
2023-03-10T03:54:18.558Z,6.95
2023-03-10T03:59:23.192Z,7.38
2023-03-10T04:04:26.356Z,7.32
2023-03-10T04:09:30.192Z,7.80
2023-03-10T04:14:36.010Z,7.55
2023-03-10T04:19:39.126Z,7.35
2023-03-10T04:24:42.270Z,6.57
2023-03-10T04:29:46.799Z,7.20
2023-03-10T04:34:49.972Z,7.18
2023-03-10T04:39:53.086Z,7.00
2023-03-10T04:44:57.772Z,7.05
2023-03-10T04:50:00.913Z,7.65
2023-03-10T04:55:04.243Z,7.72
2023-03-10T05:00:12.662Z,7.38
2023-03-10T05:05:15.953Z,6.97
2023-03-10T05:10:19.436Z,6.18
2023-03-10T05:15:24.105Z,6.47
2023-03-10T05:20:27.288Z,6.50
2023-03-10T05:25:30.726Z,7.00
2023-03-10T05:30:35.296Z,7.25
2023-03-10T05:35:39.163Z,7.32
2023-03-10T05:40:43.186Z,7.35
2023-03-10T05:45:56.378Z,6.90
2023-03-10T05:51:01.064Z,7.25
2023-03-10T05:56:07.607Z,7.20
2023-03-10T06:01:12.312Z,6.75
2023-03-10T06:06:15.460Z,6.57
2023-03-10T06:11:18.623Z,6.30
2023-03-10T06:16:23.411Z,5.38
2023-03-10T06:21:28.422Z,6.28
2023-03-10T06:31:36.469Z,5.47
2023-03-10T06:36:40.548Z,6.03
2023-03-10T06:41:43.727Z,6.20
2023-03-10T06:46:48.556Z,5.50
2023-03-10T06:51:51.724Z,5.95
2023-03-10T06:56:54.924Z,5.25
2023-03-10T07:01:59.517Z,5.60
2023-03-10T07:07:02.640Z,6.05
2023-03-10T07:12:06.406Z,6.30
2023-03-10T07:17:11.062Z,6.25
2023-03-10T07:22:14.226Z,6.53
2023-03-10T07:27:17.412Z,6.65
2023-03-10T07:32:21.965Z,5.85
2023-03-10T07:37:25.161Z,5.78
2023-03-10T07:42:28.390Z,6.10
2023-03-10T07:47:33.172Z,5.60
2023-03-10T07:52:36.336Z,5.70
2023-03-10T07:57:39.472Z,6.78
2023-03-10T08:02:44.400Z,5.50
2023-03-10T08:12:50.414Z,5.45
2023-03-10T08:17:55.002Z,6.15
2023-03-10T08:22:58.151Z,5.97
2023-03-10T08:28:01.310Z,5.82
2023-03-10T08:33:07.771Z,6.15
2023-03-10T08:38:10.968Z,5.63
2023-03-10T08:43:14.104Z,8.25
2023-03-10T08:48:18.647Z,6.00
2023-03-10T08:53:21.824Z,6.10
2023-03-10T08:58:24.968Z,5.40
2023-03-10T09:03:31.569Z,6.40
2023-03-10T09:08:35.302Z,6.07
2023-03-10T09:13:39.447Z,6.22
2023-03-10T09:18:44.398Z,6.40
2023-03-10T09:23:50.174Z,6.03
2023-03-10T09:28:56.760Z,8.75
2023-03-10T09:34:01.924Z,6.97
2023-03-10T09:39:05.914Z,9.90
2023-03-10T09:44:25.334Z,8.20
2023-03-10T09:49:34.905Z,6.75
2023-03-10T09:54:47.068Z,5.85
2023-03-10T09:59:53.936Z,5.50
2023-03-10T10:05:04.043Z,5.40
2023-03-10T10:10:14.381Z,5.45
2023-03-10T10:15:21.432Z,6.97
2023-03-10T10:20:30.155Z,5.65
2023-03-10T10:25:33.865Z,5.85
2023-03-10T10:30:38.901Z,5.38
2023-03-10T10:35:46.357Z,4.78
2023-03-10T10:40:51.419Z,5.68
2023-03-10T10:45:56.366Z,5.78
2023-03-10T10:51:00.936Z,6.55
2023-03-10T11:01:12.767Z,4.85
2023-03-10T11:06:27.275Z,5.05
2023-03-10T11:11:37.141Z,12.32
2023-03-10T11:16:50.126Z,4.70
2023-03-10T11:22:00.688Z,4.60
2023-03-10T11:27:10.548Z,4.40
2023-03-10T11:32:22.071Z,8.02
2023-03-10T11:37:34.342Z,5.70
2023-03-10T11:42:44.324Z,8.95
2023-03-10T11:47:58.350Z,5.50
2023-03-10T11:53:07.932Z,4.60
2023-03-10T11:58:22.416Z,5.35
2023-03-10T12:08:36.349Z,5.15
2023-03-10T12:13:46.068Z,4.70
2023-03-10T12:18:49.687Z,5.00
2023-03-10T12:23:56.062Z,5.80
2023-03-10T12:29:25.396Z,5.50
2023-03-10T12:34:31.730Z,5.97
2023-03-10T12:39:41.896Z,5.65
2023-03-10T12:44:51.883Z,6.65
2023-03-10T12:49:59.355Z,5.80
2023-03-10T12:55:24.300Z,6.15
2023-03-10T13:00:36.717Z,5.15
2023-03-10T13:05:42.884Z,5.10
2023-03-10T13:10:47.838Z,5.35
2023-03-10T13:15:59.404Z,4.85
2023-03-10T13:21:02.702Z,4.65
2023-03-10T13:26:09.310Z,4.53
2023-03-10T13:31:20.711Z,4.47
2023-03-10T13:36:31.473Z,4.07
2023-03-10T13:41:37.687Z,5.25
2023-03-10T13:46:40.921Z,4.22
2023-03-10T13:51:54.534Z,4.90
2023-03-10T13:57:03.202Z,5.13
2023-03-10T14:02:14.759Z,4.53
2023-03-10T14:07:19.738Z,4.80
2023-03-10T14:12:38.709Z,4.32
2023-03-10T14:17:43.289Z,3.70
2023-03-10T14:22:46.516Z,4.65
2023-03-10T14:27:56.288Z,4.85
2023-03-10T14:33:02.054Z,4.10
2023-03-10T14:38:05.286Z,5.00
2023-03-10T14:43:16.929Z,4.03
2023-03-10T14:48:23.247Z,4.57
2023-03-10T14:53:28.355Z,4.85
2023-03-10T14:58:34.812Z,4.03
2023-03-10T15:03:37.968Z,4.20
2023-03-10T15:08:41.400Z,4.47
2023-03-10T15:13:46.061Z,4.70
2023-03-10T15:18:49.396Z,4.32
2023-03-10T15:23:52.587Z,4.07
2023-03-10T15:28:57.151Z,4.80
2023-03-10T15:39:03.448Z,4.80
2023-03-10T15:44:08.768Z,4.55
2023-03-10T15:49:11.870Z,4.32
2023-03-10T15:54:15.009Z,5.13
2023-03-10T15:59:20.791Z,4.95
2023-03-10T16:09:27.422Z,5.30
2023-03-10T16:14:32.163Z,4.75
2023-03-10T16:19:35.365Z,5.15
2023-03-10T16:24:38.493Z,4.28
2023-03-10T16:29:43.291Z,4.35
2023-03-10T16:34:46.703Z,4.32
2023-03-10T16:39:49.872Z,4.68
2023-03-10T16:44:56.857Z,5.32
2023-03-10T16:50:00.306Z,4.65
2023-03-10T16:55:05.214Z,4.63
2023-03-10T17:00:12.327Z,4.72
2023-03-10T17:05:15.690Z,4.15
2023-03-10T17:10:19.037Z,4.47
2023-03-10T17:15:23.606Z,4.30
2023-03-10T17:20:27.172Z,3.88
2023-03-10T17:25:30.358Z,4.28
2023-03-10T17:30:35.025Z,4.22
2023-03-10T17:40:42.900Z,3.60
2023-03-10T17:45:57.086Z,4.23
2023-03-10T17:51:00.546Z,4.07
2023-03-10T17:56:07.979Z,4.07
2023-03-10T18:01:15.046Z,3.63
2023-03-10T18:06:20.749Z,3.80
2023-03-10T18:11:24.631Z,3.60
2023-03-10T18:16:32.704Z,5.40
2023-03-10T18:21:35.939Z,4.10
2023-03-10T18:26:43.387Z,5.32
2023-03-10T18:31:47.964Z,4.53
2023-03-10T18:36:52.016Z,6.20
2023-03-10T18:41:55.332Z,7.73
2023-03-10T18:46:59.887Z,9.27
2023-03-10T18:52:03.040Z,8.68
2023-03-10T18:57:06.304Z,7.60
2023-03-10T19:02:15.137Z,7.55
2023-03-10T19:07:20.499Z,6.93
2023-03-10T19:12:25.000Z,6.00
2023-03-10T19:17:29.573Z,6.20
2023-03-10T19:22:34.974Z,6.05
2023-03-10T19:27:40.443Z,5.70
2023-03-10T19:32:45.400Z,5.82
2023-03-10T19:37:48.515Z,6.55
2023-03-10T19:42:51.835Z,6.60
2023-03-10T19:47:58.000Z,5.75
2023-03-10T19:53:01.151Z,8.23
2023-03-10T19:58:04.317Z,9.13
2023-03-10T20:03:08.977Z,8.27
2023-03-10T20:13:15.159Z,6.80
2023-03-10T20:18:21.234Z,7.55
2023-03-10T20:23:24.722Z,7.07
2023-03-10T20:28:27.870Z,6.72
2023-03-10T20:33:32.780Z,8.32
2023-03-10T20:38:36.009Z,7.78
2023-03-10T20:43:39.207Z,7.72
2023-03-10T20:48:43.766Z,8.68
2023-03-10T20:53:46.976Z,8.38
2023-03-10T20:58:50.159Z,7.95
2023-03-10T21:03:54.975Z,7.80
2023-03-10T21:08:58.180Z,8.52
2023-03-10T21:14:01.359Z,7.28
2023-03-10T21:19:06.781Z,8.18
2023-03-10T21:24:10.347Z,7.55
2023-03-10T21:29:13.568Z,6.95
2023-03-10T21:34:18.115Z,5.72
2023-03-10T21:39:21.465Z,5.80
2023-03-10T21:44:24.651Z,6.38
2023-03-10T21:49:29.148Z,6.15
2023-03-10T21:54:32.345Z,5.97
2023-03-10T21:59:35.480Z,6.32
2023-03-10T22:04:40.376Z,10.10
2023-03-10T22:09:43.867Z,8.40
2023-03-10T22:14:47.699Z,8.73
2023-03-10T22:19:54.901Z,7.82
2023-03-10T22:24:58.347Z,8.57
2023-03-10T22:30:01.781Z,11.10
2023-03-10T22:35:07.511Z,8.07
2023-03-10T22:40:16.313Z,8.75
2023-03-10T22:45:21.670Z,8.77
2023-03-10T22:50:28.167Z,8.52
2023-03-10T22:55:35.706Z,7.75
2023-03-10T23:00:40.626Z,7.35
2023-03-10T23:05:46.163Z,8.70
2023-03-10T23:10:49.358Z,11.45
2023-03-10T23:15:52.747Z,8.18
2023-03-10T23:20:57.442Z,6.07
2023-03-10T23:26:00.945Z,9.38
2023-03-10T23:31:04.598Z,8.60
2023-03-10T23:36:11.832Z,14.85
2023-03-10T23:41:15.317Z,10.02
2023-03-10T23:46:18.568Z,16.60
2023-03-10T23:51:23.134Z,8.30
2023-03-10T23:56:26.288Z,16.48
